sensor_id;sensor_type;location;lat;lon;timestamp;temperature;humidity
34985;DHT22;21190;58.750;17.004;2023-04-03T00:01:09;-2.30;99.90
34985;DHT22;21190;58.750;17.004;2023-04-03T00:03:36;-2.40;99.90
34985;DHT22;21190;58.750;17.004;2023-04-03T00:06:04;-2.30;99.90
34985;DHT22;21190;58.750;17.004;2023-04-03T00:08:33;-2.30;99.90
34985;DHT22;21190;58.750;17.004;2023-04-03T00:11:00;-2.30;99.90
34985;DHT22;21190;58.750;17.004;2023-04-03T00:13:27;-2.30;99.90
34985;DHT22;21190;58.750;17.004;2023-04-03T00:15:54;-2.50;99.90
34985;DHT22;21190;58.750;17.004;2023-04-03T00:18:21;-2.40;99.90
34985;DHT22;21190;58.750;17.004;2023-04-03T00:20:49;-2.50;99.90
34985;DHT22;21190;58.750;17.004;2023-04-03T00:23:16;-2.50;99.90
34985;DHT22;21190;58.750;17.004;2023-04-03T00:25:43;-2.60;99.90
34985;DHT22;21190;58.750;17.004;2023-04-03T00:28:10;-2.60;99.90
34985;DHT22;21190;58.750;17.004;2023-04-03T00:30:37;-2.60;99.90
34985;DHT22;21190;58.750;17.004;2023-04-03T00:33:05;-2.60;99.90
34985;DHT22;21190;58.750;17.004;2023-04-03T00:35:32;-2.70;99.90
34985;DHT22;21190;58.750;17.004;2023-04-03T00:38:00;-2.70;99.90
34985;DHT22;21190;58.750;17.004;2023-04-03T00:40:27;-2.70;99.90
34985;DHT22;21190;58.750;17.004;2023-04-03T00:43:14;-2.70;99.90
34985;DHT22;21190;58.750;17.004;2023-04-03T00:45:44;-2.70;99.90
34985;DHT22;21190;58.750;17.004;2023-04-03T00:48:18;-2.80;99.90
34985;DHT22;21190;58.750;17.004;2023-04-03T00:50:47;-2.90;99.90
34985;DHT22;21190;58.750;17.004;2023-04-03T00:53:24;-2.80;99.90
34985;DHT22;21190;58.750;17.004;2023-04-03T00:55:54;-2.70;99.90
34985;DHT22;21190;58.750;17.004;2023-04-03T00:58:28;-2.80;99.90
34985;DHT22;21190;58.750;17.004;2023-04-03T01:00:58;-2.80;99.90
34985;DHT22;21190;58.750;17.004;2023-04-03T01:03:25;-2.90;99.90
34985;DHT22;21190;58.750;17.004;2023-04-03T01:05:52;-2.90;99.90
34985;DHT22;21190;58.750;17.004;2023-04-03T01:08:19;-2.90;99.90
34985;DHT22;21190;58.750;17.004;2023-04-03T01:10:46;-3.00;99.90
34985;DHT22;21190;58.750;17.004;2023-04-03T01:13:40;-2.90;99.90
34985;DHT22;21190;58.750;17.004;2023-04-03T01:16:07;-2.90;99.90
34985;DHT22;21190;58.750;17.004;2023-04-03T01:18:37;-2.90;99.90
34985;DHT22;21190;58.750;17.004;2023-04-03T01:24:28;-2.90;99.90
34985;DHT22;21190;58.750;17.004;2023-04-03T01:26:57;-2.90;99.90
34985;DHT22;21190;58.750;17.004;2023-04-03T01:29:24;-2.90;99.90
34985;DHT22;21190;58.750;17.004;2023-04-03T01:31:54;-3.00;99.90
34985;DHT22;21190;58.750;17.004;2023-04-03T01:34:22;-3.00;99.90
34985;DHT22;21190;58.750;17.004;2023-04-03T01:36:49;-3.00;99.90
34985;DHT22;21190;58.750;17.004;2023-04-03T01:39:17;-3.00;99.90
34985;DHT22;21190;58.750;17.004;2023-04-03T01:41:45;-3.10;99.90
34985;DHT22;21190;58.750;17.004;2023-04-03T01:44:12;-3.10;99.90
34985;DHT22;21190;58.750;17.004;2023-04-03T01:46:39;-3.10;99.90
34985;DHT22;21190;58.750;17.004;2023-04-03T01:49:08;-3.10;99.90
34985;DHT22;21190;58.750;17.004;2023-04-03T01:51:35;-3.20;99.90
34985;DHT22;21190;58.750;17.004;2023-04-03T01:54:02;-3.20;99.90
34985;DHT22;21190;58.750;17.004;2023-04-03T01:56:29;-3.00;99.90
34985;DHT22;21190;58.750;17.004;2023-04-03T01:58:56;-3.20;99.90
34985;DHT22;21190;58.750;17.004;2023-04-03T02:01:23;-3.30;99.90
34985;DHT22;21190;58.750;17.004;2023-04-03T02:03:50;-3.20;99.90
34985;DHT22;21190;58.750;17.004;2023-04-03T02:06:17;-3.30;99.90
34985;DHT22;21190;58.750;17.004;2023-04-03T02:08:44;-3.20;99.90
34985;DHT22;21190;58.750;17.004;2023-04-03T02:11:11;-3.20;99.90
34985;DHT22;21190;58.750;17.004;2023-04-03T02:13:38;-3.20;99.90
34985;DHT22;21190;58.750;17.004;2023-04-03T02:16:09;-3.30;99.90
34985;DHT22;21190;58.750;17.004;2023-04-03T02:18:37;-3.30;99.90
34985;DHT22;21190;58.750;17.004;2023-04-03T02:21:04;-3.30;99.90
34985;DHT22;21190;58.750;17.004;2023-04-03T02:23:32;-3.30;99.90
34985;DHT22;21190;58.750;17.004;2023-04-03T02:26:08;-3.40;99.90
34985;DHT22;21190;58.750;17.004;2023-04-03T02:28:35;-3.30;99.90
34985;DHT22;21190;58.750;17.004;2023-04-03T02:31:03;-3.30;99.90
34985;DHT22;21190;58.750;17.004;2023-04-03T02:33:31;-3.30;99.90
34985;DHT22;21190;58.750;17.004;2023-04-03T02:35:58;-3.40;99.90
34985;DHT22;21190;58.750;17.004;2023-04-03T02:38:26;-3.50;99.90
34985;DHT22;21190;58.750;17.004;2023-04-03T02:40:52;-3.30;99.90
34985;DHT22;21190;58.750;17.004;2023-04-03T02:43:19;-3.30;99.90
34985;DHT22;21190;58.750;17.004;2023-04-03T02:45:46;-3.40;99.90
34985;DHT22;21190;58.750;17.004;2023-04-03T02:48:13;-3.40;99.90
34985;DHT22;21190;58.750;17.004;2023-04-03T02:50:41;-3.40;99.90
34985;DHT22;21190;58.750;17.004;2023-04-03T02:53:08;-3.40;99.90
34985;DHT22;21190;58.750;17.004;2023-04-03T02:55:35;-3.30;99.90
34985;DHT22;21190;58.750;17.004;2023-04-03T02:58:02;-3.50;99.90
34985;DHT22;21190;58.750;17.004;2023-04-03T03:00:30;-3.40;99.90
34985;DHT22;21190;58.750;17.004;2023-04-03T03:02:57;-3.40;99.90
34985;DHT22;21190;58.750;17.004;2023-04-03T03:05:24;-3.50;99.90
34985;DHT22;21190;58.750;17.004;2023-04-03T03:07:51;-3.40;99.90
34985;DHT22;21190;58.750;17.004;2023-04-03T03:10:18;-3.40;99.90
34985;DHT22;21190;58.750;17.004;2023-04-03T03:12:46;-3.40;99.90
34985;DHT22;21190;58.750;17.004;2023-04-03T03:15:13;-3.40;99.90
34985;DHT22;21190;58.750;17.004;2023-04-03T03:17:40;-3.50;99.90
34985;DHT22;21190;58.750;17.004;2023-04-03T03:20:07;-3.50;99.90
34985;DHT22;21190;58.750;17.004;2023-04-03T03:22:34;-3.60;99.90
34985;DHT22;21190;58.750;17.004;2023-04-03T03:25:02;-3.60;99.90
34985;DHT22;21190;58.750;17.004;2023-04-03T03:27:29;-3.60;99.90
34985;DHT22;21190;58.750;17.004;2023-04-03T03:29:56;-3.50;99.90
34985;DHT22;21190;58.750;17.004;2023-04-03T03:32:23;-3.50;99.90
34985;DHT22;21190;58.750;17.004;2023-04-03T03:34:51;-3.50;99.90
34985;DHT22;21190;58.750;17.004;2023-04-03T03:37:18;-3.50;99.90
34985;DHT22;21190;58.750;17.004;2023-04-03T03:39:44;-3.50;99.90
34985;DHT22;21190;58.750;17.004;2023-04-03T03:42:11;-3.50;99.90
34985;DHT22;21190;58.750;17.004;2023-04-03T03:44:38;-3.50;99.90
34985;DHT22;21190;58.750;17.004;2023-04-03T03:47:05;-3.60;99.90
34985;DHT22;21190;58.750;17.004;2023-04-03T03:49:32;-3.60;99.90
34985;DHT22;21190;58.750;17.004;2023-04-03T03:51:59;-3.50;99.90
34985;DHT22;21190;58.750;17.004;2023-04-03T03:54:26;-3.50;99.90
34985;DHT22;21190;58.750;17.004;2023-04-03T03:56:53;-3.50;99.90
34985;DHT22;21190;58.750;17.004;2023-04-03T03:59:20;-3.50;99.90
34985;DHT22;21190;58.750;17.004;2023-04-03T04:01:47;-3.50;99.90
34985;DHT22;21190;58.750;17.004;2023-04-03T04:04:14;-3.50;99.90
34985;DHT22;21190;58.750;17.004;2023-04-03T04:06:41;-3.60;99.90
34985;DHT22;21190;58.750;17.004;2023-04-03T04:09:09;-3.50;99.90
34985;DHT22;21190;58.750;17.004;2023-04-03T04:11:36;-3.50;99.90
34985;DHT22;21190;58.750;17.004;2023-04-03T04:14:03;-3.70;99.90
34985;DHT22;21190;58.750;17.004;2023-04-03T04:16:30;-3.60;99.90
34985;DHT22;21190;58.750;17.004;2023-04-03T04:18:57;-3.60;99.90
34985;DHT22;21190;58.750;17.004;2023-04-03T04:21:24;-3.50;99.90
34985;DHT22;21190;58.750;17.004;2023-04-03T04:23:51;-3.50;99.90
34985;DHT22;21190;58.750;17.004;2023-04-03T04:26:18;-3.60;99.90
34985;DHT22;21190;58.750;17.004;2023-04-03T04:28:44;-3.70;99.90
34985;DHT22;21190;58.750;17.004;2023-04-03T04:31:11;-3.80;99.90
34985;DHT22;21190;58.750;17.004;2023-04-03T04:33:38;-3.80;99.90
34985;DHT22;21190;58.750;17.004;2023-04-03T04:36:05;-3.80;99.90
34985;DHT22;21190;58.750;17.004;2023-04-03T04:38:32;-3.70;99.90
34985;DHT22;21190;58.750;17.004;2023-04-03T04:40:59;-3.50;99.90
34985;DHT22;21190;58.750;17.004;2023-04-03T04:43:26;-3.60;99.90
34985;DHT22;21190;58.750;17.004;2023-04-03T04:48:30;-3.60;99.90
34985;DHT22;21190;58.750;17.004;2023-04-03T04:50:58;-3.60;99.90
34985;DHT22;21190;58.750;17.004;2023-04-03T04:53:25;-3.60;99.90
34985;DHT22;21190;58.750;17.004;2023-04-03T04:55:52;-3.60;99.90
34985;DHT22;21190;58.750;17.004;2023-04-03T04:58:20;-3.70;99.90
34985;DHT22;21190;58.750;17.004;2023-04-03T05:00:47;-3.50;99.90
34985;DHT22;21190;58.750;17.004;2023-04-03T05:03:14;-3.60;99.90
34985;DHT22;21190;58.750;17.004;2023-04-03T05:05:41;-3.50;99.90
34985;DHT22;21190;58.750;17.004;2023-04-03T05:08:08;-3.40;99.90
34985;DHT22;21190;58.750;17.004;2023-04-03T05:10:35;-3.40;99.90
34985;DHT22;21190;58.750;17.004;2023-04-03T05:13:02;-3.50;99.90
34985;DHT22;21190;58.750;17.004;2023-04-03T05:15:29;-3.40;99.90
34985;DHT22;21190;58.750;17.004;2023-04-03T05:17:55;-3.40;99.90
34985;DHT22;21190;58.750;17.004;2023-04-03T05:20:22;-3.30;99.90
34985;DHT22;21190;58.750;17.004;2023-04-03T05:22:49;-3.30;99.90
34985;DHT22;21190;58.750;17.004;2023-04-03T05:25:16;-3.20;99.90
34985;DHT22;21190;58.750;17.004;2023-04-03T05:27:43;-3.20;99.90
34985;DHT22;21190;58.750;17.004;2023-04-03T05:30:10;-3.20;99.90
34985;DHT22;21190;58.750;17.004;2023-04-03T05:32:37;-3.20;99.90
34985;DHT22;21190;58.750;17.004;2023-04-03T05:35:05;-3.00;99.90
34985;DHT22;21190;58.750;17.004;2023-04-03T05:37:33;-3.00;99.90
34985;DHT22;21190;58.750;17.004;2023-04-03T05:40:00;-3.00;99.90
34985;DHT22;21190;58.750;17.004;2023-04-03T05:42:27;-2.90;99.90
34985;DHT22;21190;58.750;17.004;2023-04-03T05:44:54;-2.90;99.90
34985;DHT22;21190;58.750;17.004;2023-04-03T05:47:20;-2.80;99.90
34985;DHT22;21190;58.750;17.004;2023-04-03T05:49:48;-2.80;99.90
34985;DHT22;21190;58.750;17.004;2023-04-03T05:52:23;-2.80;99.90
34985;DHT22;21190;58.750;17.004;2023-04-03T05:54:50;-2.70;99.90
34985;DHT22;21190;58.750;17.004;2023-04-03T05:57:17;-2.70;99.90
34985;DHT22;21190;58.750;17.004;2023-04-03T05:59:45;-2.60;99.90
34985;DHT22;21190;58.750;17.004;2023-04-03T06:02:18;-2.50;99.90
34985;DHT22;21190;58.750;17.004;2023-04-03T06:04:46;-2.50;99.90
34985;DHT22;21190;58.750;17.004;2023-04-03T06:07:20;-2.40;99.90
34985;DHT22;21190;58.750;17.004;2023-04-03T06:09:51;-2.30;99.90
34985;DHT22;21190;58.750;17.004;2023-04-03T06:12:19;-2.40;99.90
34985;DHT22;21190;58.750;17.004;2023-04-03T06:14:46;-2.30;99.90
34985;DHT22;21190;58.750;17.004;2023-04-03T06:17:14;-2.20;99.90
34985;DHT22;21190;58.750;17.004;2023-04-03T06:19:42;-2.30;99.90
34985;DHT22;21190;58.750;17.004;2023-04-03T06:22:08;-2.20;99.90
34985;DHT22;21190;58.750;17.004;2023-04-03T06:24:35;-2.10;99.90
34985;DHT22;21190;58.750;17.004;2023-04-03T06:27:04;-2.00;99.90
34985;DHT22;21190;58.750;17.004;2023-04-03T06:29:31;-1.90;99.90
34985;DHT22;21190;58.750;17.004;2023-04-03T06:31:58;-1.90;99.90
34985;DHT22;21190;58.750;17.004;2023-04-03T06:34:25;-1.90;99.90
34985;DHT22;21190;58.750;17.004;2023-04-03T06:36:52;-1.70;99.90
34985;DHT22;21190;58.750;17.004;2023-04-03T06:39:21;-1.70;99.90
34985;DHT22;21190;58.750;17.004;2023-04-03T06:41:49;-1.60;99.90
34985;DHT22;21190;58.750;17.004;2023-04-03T06:44:17;-1.50;99.90
34985;DHT22;21190;58.750;17.004;2023-04-03T06:46:44;-1.50;99.90
34985;DHT22;21190;58.750;17.004;2023-04-03T06:49:13;-1.50;99.90
34985;DHT22;21190;58.750;17.004;2023-04-03T06:51:40;-1.40;99.90
34985;DHT22;21190;58.750;17.004;2023-04-03T06:54:07;-1.30;99.90
34985;DHT22;21190;58.750;17.004;2023-04-03T06:56:35;-1.20;99.90
34985;DHT22;21190;58.750;17.004;2023-04-03T06:59:02;-1.20;99.90
34985;DHT22;21190;58.750;17.004;2023-04-03T07:01:29;-1.00;99.90
34985;DHT22;21190;58.750;17.004;2023-04-03T07:03:56;-1.10;99.90
34985;DHT22;21190;58.750;17.004;2023-04-03T07:06:24;-1.00;99.90
34985;DHT22;21190;58.750;17.004;2023-04-03T07:08:54;-0.90;99.90
34985;DHT22;21190;58.750;17.004;2023-04-03T07:11:21;-0.70;99.90
34985;DHT22;21190;58.750;17.004;2023-04-03T07:13:49;-0.70;99.90
34985;DHT22;21190;58.750;17.004;2023-04-03T07:16:16;-0.70;99.90
34985;DHT22;21190;58.750;17.004;2023-04-03T07:18:44;-0.70;99.90
34985;DHT22;21190;58.750;17.004;2023-04-03T07:21:11;-0.60;99.90
34985;DHT22;21190;58.750;17.004;2023-04-03T07:23:38;-0.50;99.90
34985;DHT22;21190;58.750;17.004;2023-04-03T07:26:05;-0.50;99.90
34985;DHT22;21190;58.750;17.004;2023-04-03T07:28:33;-0.50;99.90
34985;DHT22;21190;58.750;17.004;2023-04-03T07:31:06;-0.50;99.90
34985;DHT22;21190;58.750;17.004;2023-04-03T07:33:36;-0.30;99.90
34985;DHT22;21190;58.750;17.004;2023-04-03T07:36:05;-0.30;99.90
34985;DHT22;21190;58.750;17.004;2023-04-03T07:38:34;-0.20;99.90
34985;DHT22;21190;58.750;17.004;2023-04-03T07:41:03;-0.10;99.90
34985;DHT22;21190;58.750;17.004;2023-04-03T07:43:30;-0.10;99.90
34985;DHT22;21190;58.750;17.004;2023-04-03T07:45:58;0.00;99.90
34985;DHT22;21190;58.750;17.004;2023-04-03T07:48:26;0.10;99.90
34985;DHT22;21190;58.750;17.004;2023-04-03T07:50:53;0.20;99.90
34985;DHT22;21190;58.750;17.004;2023-04-03T07:53:20;0.20;99.90
34985;DHT22;21190;58.750;17.004;2023-04-03T07:55:48;0.20;99.90
34985;DHT22;21190;58.750;17.004;2023-04-03T07:58:17;0.20;99.90
34985;DHT22;21190;58.750;17.004;2023-04-03T08:00:45;0.30;99.90
34985;DHT22;21190;58.750;17.004;2023-04-03T08:03:12;0.40;99.90
34985;DHT22;21190;58.750;17.004;2023-04-03T08:05:41;0.50;99.90
34985;DHT22;21190;58.750;17.004;2023-04-03T08:08:10;0.60;99.90
34985;DHT22;21190;58.750;17.004;2023-04-03T08:10:38;0.60;99.90
34985;DHT22;21190;58.750;17.004;2023-04-03T08:13:06;0.50;99.90
34985;DHT22;21190;58.750;17.004;2023-04-03T08:15:34;0.60;99.90
34985;DHT22;21190;58.750;17.004;2023-04-03T08:18:02;0.60;99.90
34985;DHT22;21190;58.750;17.004;2023-04-03T08:20:29;0.60;99.90
34985;DHT22;21190;58.750;17.004;2023-04-03T08:22:56;0.90;99.90
34985;DHT22;21190;58.750;17.004;2023-04-03T08:25:23;0.90;99.90
34985;DHT22;21190;58.750;17.004;2023-04-03T08:27:50;1.10;99.90
34985;DHT22;21190;58.750;17.004;2023-04-03T08:30:17;1.10;99.90
34985;DHT22;21190;58.750;17.004;2023-04-03T08:32:44;1.20;99.90
34985;DHT22;21190;58.750;17.004;2023-04-03T08:35:11;1.20;99.90
34985;DHT22;21190;58.750;17.004;2023-04-03T08:37:39;1.20;99.90
34985;DHT22;21190;58.750;17.004;2023-04-03T08:40:11;1.20;99.90
34985;DHT22;21190;58.750;17.004;2023-04-03T08:43:19;1.20;99.90
34985;DHT22;21190;58.750;17.004;2023-04-03T08:45:52;1.30;99.90
34985;DHT22;21190;58.750;17.004;2023-04-03T08:48:36;1.20;99.90
34985;DHT22;21190;58.750;17.004;2023-04-03T08:51:14;1.30;99.90
34985;DHT22;21190;58.750;17.004;2023-04-03T08:56:32;1.60;99.90
34985;DHT22;21190;58.750;17.004;2023-04-03T08:59:04;1.50;99.90
34985;DHT22;21190;58.750;17.004;2023-04-03T09:01:36;1.50;99.90
34985;DHT22;21190;58.750;17.004;2023-04-03T09:04:13;1.60;99.90
34985;DHT22;21190;58.750;17.004;2023-04-03T09:06:55;1.60;99.90
34985;DHT22;21190;58.750;17.004;2023-04-03T09:09:31;1.60;99.90
34985;DHT22;21190;58.750;17.004;2023-04-03T09:12:17;1.60;99.90
34985;DHT22;21190;58.750;17.004;2023-04-03T09:22:51;1.90;99.90
34985;DHT22;21190;58.750;17.004;2023-04-03T09:25:32;1.80;99.90
34985;DHT22;21190;58.750;17.004;2023-04-03T09:28:03;1.80;99.90
34985;DHT22;21190;58.750;17.004;2023-04-03T09:30:30;1.80;99.90
34985;DHT22;21190;58.750;17.004;2023-04-03T09:32:57;1.90;99.90
34985;DHT22;21190;58.750;17.004;2023-04-03T09:35:28;2.00;99.90
34985;DHT22;21190;58.750;17.004;2023-04-03T09:40:43;2.00;99.90
34985;DHT22;21190;58.750;17.004;2023-04-03T09:43:29;2.10;99.90
34985;DHT22;21190;58.750;17.004;2023-04-03T09:46:30;2.20;99.90
34985;DHT22;21190;58.750;17.004;2023-04-03T09:49:00;2.10;99.90
34985;DHT22;21190;58.750;17.004;2023-04-03T09:51:36;2.10;99.90
34985;DHT22;21190;58.750;17.004;2023-04-03T09:54:36;2.20;99.90
34985;DHT22;21190;58.750;17.004;2023-04-03T09:57:11;2.10;99.90
34985;DHT22;21190;58.750;17.004;2023-04-03T10:00:03;2.30;99.90
34985;DHT22;21190;58.750;17.004;2023-04-03T10:02:39;2.20;99.90
34985;DHT22;21190;58.750;17.004;2023-04-03T10:05:32;2.20;99.90
34985;DHT22;21190;58.750;17.004;2023-04-03T10:08:24;2.30;99.90
34985;DHT22;21190;58.750;17.004;2023-04-03T10:11:10;2.40;99.90
34985;DHT22;21190;58.750;17.004;2023-04-03T10:13:58;2.50;99.90
34985;DHT22;21190;58.750;17.004;2023-04-03T10:16:35;2.60;99.90
34985;DHT22;21190;58.750;17.004;2023-04-03T10:27:07;2.50;99.90
34985;DHT22;21190;58.750;17.004;2023-04-03T10:29:51;2.70;99.90
34985;DHT22;21190;58.750;17.004;2023-04-03T10:35:18;2.70;99.90
34985;DHT22;21190;58.750;17.004;2023-04-03T10:40:57;2.70;99.90
34985;DHT22;21190;58.750;17.004;2023-04-03T10:43:36;2.60;99.90
34985;DHT22;21190;58.750;17.004;2023-04-03T10:49:00;2.80;99.90
34985;DHT22;21190;58.750;17.004;2023-04-03T10:54:26;3.00;99.90
34985;DHT22;21190;58.750;17.004;2023-04-03T10:57:04;2.90;99.90
34985;DHT22;21190;58.750;17.004;2023-04-03T10:59:55;3.00;99.90
34985;DHT22;21190;58.750;17.004;2023-04-03T11:02:31;3.10;99.90
34985;DHT22;21190;58.750;17.004;2023-04-03T11:05:02;3.10;99.90
34985;DHT22;21190;58.750;17.004;2023-04-03T11:07:39;3.00;99.90
34985;DHT22;21190;58.750;17.004;2023-04-03T11:10:20;3.10;99.90
34985;DHT22;21190;58.750;17.004;2023-04-03T11:13:16;3.10;99.90
34985;DHT22;21190;58.750;17.004;2023-04-03T11:15:44;3.10;99.90
34985;DHT22;21190;58.750;17.004;2023-04-03T11:18:21;3.00;99.90
34985;DHT22;21190;58.750;17.004;2023-04-03T11:23:36;3.20;99.90
34985;DHT22;21190;58.750;17.004;2023-04-03T11:26:21;3.40;99.90
34985;DHT22;21190;58.750;17.004;2023-04-03T11:28:57;3.40;99.90
34985;DHT22;21190;58.750;17.004;2023-04-03T11:34:39;3.40;99.90
34985;DHT22;21190;58.750;17.004;2023-04-03T11:37:35;3.30;99.90
34985;DHT22;21190;58.750;17.004;2023-04-03T11:40:08;3.40;99.90
34985;DHT22;21190;58.750;17.004;2023-04-03T11:42:51;3.40;99.90
34985;DHT22;21190;58.750;17.004;2023-04-03T11:47:56;3.40;99.90
34985;DHT22;21190;58.750;17.004;2023-04-03T11:50:41;3.50;99.90
34985;DHT22;21190;58.750;17.004;2023-04-03T11:58:35;3.80;99.90
34985;DHT22;21190;58.750;17.004;2023-04-03T12:01:10;3.70;99.90
34985;DHT22;21190;58.750;17.004;2023-04-03T12:13:38;3.60;99.90
34985;DHT22;21190;58.750;17.004;2023-04-03T12:16:07;3.80;99.90
34985;DHT22;21190;58.750;17.004;2023-04-03T12:35:29;4.10;99.90
34985;DHT22;21190;58.750;17.004;2023-04-03T12:46:24;4.20;99.90
34985;DHT22;21190;58.750;17.004;2023-04-03T12:48:56;4.20;99.90
34985;DHT22;21190;58.750;17.004;2023-04-03T12:51:41;4.20;99.90
34985;DHT22;21190;58.750;17.004;2023-04-03T12:57:10;4.20;99.90
34985;DHT22;21190;58.750;17.004;2023-04-03T12:59:37;4.30;99.90
34985;DHT22;21190;58.750;17.004;2023-04-03T13:02:24;4.20;99.90
34985;DHT22;21190;58.750;17.004;2023-04-03T13:04:54;4.20;99.90
34985;DHT22;21190;58.750;17.004;2023-04-03T13:07:28;4.20;99.90
34985;DHT22;21190;58.750;17.004;2023-04-03T13:10:10;4.20;99.90
34985;DHT22;21190;58.750;17.004;2023-04-03T13:12:54;4.30;99.90
34985;DHT22;21190;58.750;17.004;2023-04-03T13:15:28;4.30;99.90
34985;DHT22;21190;58.750;17.004;2023-04-03T13:17:56;4.40;99.90
34985;DHT22;21190;58.750;17.004;2023-04-03T13:20:33;4.30;99.90
34985;DHT22;21190;58.750;17.004;2023-04-03T13:23:07;4.30;99.90
34985;DHT22;21190;58.750;17.004;2023-04-03T13:25:40;4.30;99.80
34985;DHT22;21190;58.750;17.004;2023-04-03T13:28:12;4.30;99.90
34985;DHT22;21190;58.750;17.004;2023-04-03T13:30:41;4.30;99.90
34985;DHT22;21190;58.750;17.004;2023-04-03T13:33:26;4.40;99.90
34985;DHT22;21190;58.750;17.004;2023-04-03T13:36:04;4.50;99.90
34985;DHT22;21190;58.750;17.004;2023-04-03T13:38:32;4.50;99.90
34985;DHT22;21190;58.750;17.004;2023-04-03T13:41:20;4.50;99.90
34985;DHT22;21190;58.750;17.004;2023-04-03T13:43:47;4.60;99.90
34985;DHT22;21190;58.750;17.004;2023-04-03T13:48:43;4.50;99.90
34985;DHT22;21190;58.750;17.004;2023-04-03T13:53:50;4.80;98.50
34985;DHT22;21190;58.750;17.004;2023-04-03T13:59:04;4.70;96.40
34985;DHT22;21190;58.750;17.004;2023-04-03T14:04:33;4.80;97.30
34985;DHT22;21190;58.750;17.004;2023-04-03T14:07:12;4.70;94.90
34985;DHT22;21190;58.750;17.004;2023-04-03T14:09:39;4.60;96.10
34985;DHT22;21190;58.750;17.004;2023-04-03T14:12:18;4.60;96.50
34985;DHT22;21190;58.750;17.004;2023-04-03T14:14:56;4.70;95.90
34985;DHT22;21190;58.750;17.004;2023-04-03T14:17:25;4.60;94.60
34985;DHT22;21190;58.750;17.004;2023-04-03T14:19:54;4.70;95.20
34985;DHT22;21190;58.750;17.004;2023-04-03T14:22:25;4.80;94.10
34985;DHT22;21190;58.750;17.004;2023-04-03T14:24:52;4.80;93.30
34985;DHT22;21190;58.750;17.004;2023-04-03T14:27:25;4.80;93.50
34985;DHT22;21190;58.750;17.004;2023-04-03T14:29:54;4.80;92.20
34985;DHT22;21190;58.750;17.004;2023-04-03T14:32:24;4.80;92.60
34985;DHT22;21190;58.750;17.004;2023-04-03T14:34:52;4.90;92.60
34985;DHT22;21190;58.750;17.004;2023-04-03T14:37:23;5.00;93.40
34985;DHT22;21190;58.750;17.004;2023-04-03T14:39:52;5.10;92.90
34985;DHT22;21190;58.750;17.004;2023-04-03T14:42:23;5.00;92.30
34985;DHT22;21190;58.750;17.004;2023-04-03T14:44:51;4.90;91.70
34985;DHT22;21190;58.750;17.004;2023-04-03T14:47:21;4.90;93.10
34985;DHT22;21190;58.750;17.004;2023-04-03T14:50:03;4.90;92.40
34985;DHT22;21190;58.750;17.004;2023-04-03T14:52:33;5.00;92.80
34985;DHT22;21190;58.750;17.004;2023-04-03T14:55:01;5.00;92.10
34985;DHT22;21190;58.750;17.004;2023-04-03T14:57:29;4.90;91.90
34985;DHT22;21190;58.750;17.004;2023-04-03T14:59:57;4.90;91.80
34985;DHT22;21190;58.750;17.004;2023-04-03T15:04:59;4.90;91.90
34985;DHT22;21190;58.750;17.004;2023-04-03T15:07:29;4.90;92.60
34985;DHT22;21190;58.750;17.004;2023-04-03T15:09:56;4.90;89.30
34985;DHT22;21190;58.750;17.004;2023-04-03T15:12:25;4.80;90.40
34985;DHT22;21190;58.750;17.004;2023-04-03T15:14:52;4.80;91.40
34985;DHT22;21190;58.750;17.004;2023-04-03T15:17:28;4.90;90.40
34985;DHT22;21190;58.750;17.004;2023-04-03T15:19:55;5.00;90.50
34985;DHT22;21190;58.750;17.004;2023-04-03T15:22:22;5.10;90.70
34985;DHT22;21190;58.750;17.004;2023-04-03T15:24:49;5.10;88.90
34985;DHT22;21190;58.750;17.004;2023-04-03T15:27:16;5.20;89.10
34985;DHT22;21190;58.750;17.004;2023-04-03T15:29:44;5.20;90.10
34985;DHT22;21190;58.750;17.004;2023-04-03T15:32:12;5.20;90.20
34985;DHT22;21190;58.750;17.004;2023-04-03T15:34:40;5.10;90.70
34985;DHT22;21190;58.750;17.004;2023-04-03T15:37:07;5.10;89.40
34985;DHT22;21190;58.750;17.004;2023-04-03T15:39:34;5.00;89.60
34985;DHT22;21190;58.750;17.004;2023-04-03T15:42:01;5.00;87.90
34985;DHT22;21190;58.750;17.004;2023-04-03T15:44:35;4.90;88.50
34985;DHT22;21190;58.750;17.004;2023-04-03T15:47:02;4.80;90.00
34985;DHT22;21190;58.750;17.004;2023-04-03T15:49:32;4.80;89.70
34985;DHT22;21190;58.750;17.004;2023-04-03T15:52:00;4.90;88.90
34985;DHT22;21190;58.750;17.004;2023-04-03T15:54:27;4.80;88.80
34985;DHT22;21190;58.750;17.004;2023-04-03T15:56:56;4.70;89.70
34985;DHT22;21190;58.750;17.004;2023-04-03T15:59:23;4.70;88.70
34985;DHT22;21190;58.750;17.004;2023-04-03T16:01:51;4.70;90.10
34985;DHT22;21190;58.750;17.004;2023-04-03T16:04:19;4.80;89.90
34985;DHT22;21190;58.750;17.004;2023-04-03T16:06:48;4.70;87.90
34985;DHT22;21190;58.750;17.004;2023-04-03T16:09:15;4.70;87.90
34985;DHT22;21190;58.750;17.004;2023-04-03T16:11:42;4.60;88.40
34985;DHT22;21190;58.750;17.004;2023-04-03T16:14:10;4.50;87.50
34985;DHT22;21190;58.750;17.004;2023-04-03T16:16:37;4.50;89.00
34985;DHT22;21190;58.750;17.004;2023-04-03T16:19:05;4.40;90.10
34985;DHT22;21190;58.750;17.004;2023-04-03T16:21:32;4.50;87.50
34985;DHT22;21190;58.750;17.004;2023-04-03T16:24:00;4.50;86.40
34985;DHT22;21190;58.750;17.004;2023-04-03T16:26:27;4.50;86.90
34985;DHT22;21190;58.750;17.004;2023-04-03T16:28:54;4.50;85.90
34985;DHT22;21190;58.750;17.004;2023-04-03T16:31:22;4.40;85.40
34985;DHT22;21190;58.750;17.004;2023-04-03T16:33:50;4.50;83.70
34985;DHT22;21190;58.750;17.004;2023-04-03T16:36:17;4.50;84.20
34985;DHT22;21190;58.750;17.004;2023-04-03T16:38:44;4.50;82.90
34985;DHT22;21190;58.750;17.004;2023-04-03T16:41:11;4.40;81.30
34985;DHT22;21190;58.750;17.004;2023-04-03T16:43:38;4.30;81.80
34985;DHT22;21190;58.750;17.004;2023-04-03T16:46:05;4.30;82.60
34985;DHT22;21190;58.750;17.004;2023-04-03T16:48:32;4.40;82.30
34985;DHT22;21190;58.750;17.004;2023-04-03T16:50:59;4.40;79.70
34985;DHT22;21190;58.750;17.004;2023-04-03T16:53:27;4.40;79.00
34985;DHT22;21190;58.750;17.004;2023-04-03T16:55:56;4.30;78.50
34985;DHT22;21190;58.750;17.004;2023-04-03T16:58:23;4.30;79.10
34985;DHT22;21190;58.750;17.004;2023-04-03T17:00:50;4.30;79.30
34985;DHT22;21190;58.750;17.004;2023-04-03T17:03:17;4.20;79.10
34985;DHT22;21190;58.750;17.004;2023-04-03T17:05:47;4.20;81.60
34985;DHT22;21190;58.750;17.004;2023-04-03T17:08:16;4.10;81.30
34985;DHT22;21190;58.750;17.004;2023-04-03T17:10:43;4.10;82.10
34985;DHT22;21190;58.750;17.004;2023-04-03T17:13:10;3.90;80.30
34985;DHT22;21190;58.750;17.004;2023-04-03T17:15:37;3.90;82.10
34985;DHT22;21190;58.750;17.004;2023-04-03T17:18:05;3.90;81.40
34985;DHT22;21190;58.750;17.004;2023-04-03T17:20:32;3.90;78.80
34985;DHT22;21190;58.750;17.004;2023-04-03T17:23:00;3.90;79.50
34985;DHT22;21190;58.750;17.004;2023-04-03T17:25:27;3.70;83.20